createdAt,value
2018-04-18T00:01:11.295Z,101397.16
2018-04-18T00:03:38.749Z,101397.22
2018-04-18T00:06:06.238Z,101398.94
2018-04-18T00:08:33.697Z,101393.48
2018-04-18T00:11:01.189Z,101397.70
2018-04-18T00:13:28.654Z,101404.33
2018-04-18T00:15:56.137Z,101400.22
2018-04-18T00:18:23.598Z,101399.65
2018-04-18T00:20:51.082Z,101398.71
2018-04-18T00:23:18.540Z,101401.44
2018-04-18T00:25:46.018Z,101397.17
2018-04-18T00:28:13.483Z,101398.55
2018-04-18T00:30:42.881Z,101394.73
2018-04-18T00:33:10.337Z,101395.56
2018-04-18T00:35:37.830Z,101397.11
2018-04-18T00:38:05.288Z,101399.56
2018-04-18T00:40:32.761Z,101400.23
2018-04-18T00:43:00.227Z,101394.39
2018-04-18T00:45:27.712Z,101390.45
2018-04-18T00:47:55.171Z,101397.62
2018-04-18T00:50:22.649Z,101398.72
2018-04-18T00:52:50.102Z,101392.31
2018-04-18T00:55:17.573Z,101393.50
2018-04-18T00:57:45.030Z,101385.84
2018-04-18T01:00:12.506Z,101389.75
2018-04-18T01:02:39.969Z,101390.58
2018-04-18T01:05:07.493Z,101392.13
2018-04-18T01:07:34.950Z,101392.31
2018-04-18T01:10:02.440Z,101393.80
2018-04-18T01:12:29.902Z,101391.62
2018-04-18T01:14:57.378Z,101396.84
2018-04-18T01:17:24.847Z,101395.22
2018-04-18T01:19:52.329Z,101393.21
2018-04-18T01:22:19.795Z,101396.44
2018-04-18T01:24:47.289Z,101399.91
2018-04-18T01:27:14.765Z,101402.33
2018-04-18T01:29:42.252Z,101400.14
2018-04-18T01:32:09.721Z,101402.34
2018-04-18T01:34:37.222Z,101407.08
2018-04-18T01:37:04.679Z,101407.73
2018-04-18T01:39:32.147Z,101401.39
2018-04-18T01:41:59.634Z,101401.70
2018-04-18T01:44:27.102Z,101406.66
2018-04-18T01:46:54.590Z,101411.49
2018-04-18T01:49:23.553Z,101410.47
2018-04-18T01:51:51.035Z,101412.76
2018-04-18T01:54:18.501Z,101413.91
2018-04-18T01:56:45.997Z,101415.55
2018-04-18T01:59:13.517Z,101422.00
2018-04-18T02:01:40.968Z,101417.98
2018-04-18T02:04:08.433Z,101420.68
2018-04-18T02:06:35.913Z,101429.42
2018-04-18T02:09:03.374Z,101433.06
2018-04-18T02:11:30.861Z,101434.85
2018-04-18T02:13:58.326Z,101433.27
2018-04-18T02:16:25.809Z,101441.02
2018-04-18T02:18:53.269Z,101441.41
2018-04-18T02:21:20.745Z,101439.45
2018-04-18T02:23:48.214Z,101442.30
2018-04-18T02:26:15.686Z,101446.28
2018-04-18T02:28:43.145Z,101441.19
2018-04-18T02:31:10.646Z,101441.33
2018-04-18T02:33:38.113Z,101442.11
2018-04-18T02:36:05.590Z,101449.34
2018-04-18T02:38:33.052Z,101454.22
2018-04-18T02:41:00.521Z,101449.64
2018-04-18T02:43:27.974Z,101448.34
2018-04-18T02:45:55.445Z,101461.69
2018-04-18T02:48:22.898Z,101461.56
2018-04-18T02:50:50.369Z,101463.95
2018-04-18T02:53:17.822Z,101460.53
2018-04-18T02:55:45.299Z,101465.14
2018-04-18T02:58:12.758Z,101466.27
2018-04-18T03:00:40.234Z,101466.30
2018-04-18T03:03:07.714Z,101469.95
2018-04-18T03:05:35.252Z,101469.73
2018-04-18T03:08:02.665Z,101470.03
2018-04-18T03:10:30.148Z,101472.02
2018-04-18T03:12:57.601Z,101470.48
2018-04-18T03:15:25.077Z,101471.65
2018-04-18T03:17:52.525Z,101476.03
2018-04-18T03:20:19.997Z,101486.83
2018-04-18T03:22:47.453Z,101486.33
2018-04-18T03:25:14.931Z,101482.05
2018-04-18T03:27:42.387Z,101489.40
2018-04-18T03:30:09.842Z,101485.13
2018-04-18T03:32:37.314Z,101490.73
2018-04-18T03:35:04.769Z,101485.55
2018-04-18T03:37:32.243Z,101490.11
2018-04-18T03:39:59.697Z,101496.67
2018-04-18T03:42:27.173Z,101490.64
2018-04-18T03:44:54.625Z,101488.88
2018-04-18T03:47:22.106Z,101482.52
2018-04-18T03:49:49.561Z,101491.36
2018-04-18T03:52:17.095Z,101491.49
2018-04-18T03:54:44.525Z,101489.41
2018-04-18T03:57:12.002Z,101491.48
2018-04-18T03:59:39.462Z,101497.63
2018-04-18T04:02:06.939Z,101497.72
2018-04-18T04:04:34.390Z,101500.11
2018-04-18T04:07:01.866Z,101500.73
2018-04-18T04:09:29.336Z,101510.31
2018-04-18T04:11:56.816Z,101506.67
2018-04-18T04:14:24.289Z,101509.16
2018-04-18T04:17:03.603Z,101510.84
2018-04-18T04:19:42.749Z,101510.31
2018-04-18T04:22:21.835Z,101509.16
2018-04-18T04:24:49.435Z,101516.05
2018-04-18T04:27:17.580Z,101514.79
2018-04-18T04:29:45.038Z,101514.59
2018-04-18T04:32:12.509Z,101519.78
2018-04-18T04:34:40.833Z,101522.70
2018-04-18T04:37:08.300Z,101525.27
2018-04-18T04:39:35.754Z,101528.06
2018-04-18T04:42:03.235Z,101530.06
2018-04-18T04:44:30.692Z,101532.97
2018-04-18T04:46:58.165Z,101532.97
2018-04-18T04:49:25.614Z,101534.94
2018-04-18T04:51:53.102Z,101538.29
2018-04-18T04:54:20.574Z,101539.02
2018-04-18T04:56:48.051Z,101542.66
2018-04-18T04:59:15.501Z,101545.67
2018-04-18T05:01:42.982Z,101546.22
2018-04-18T05:04:10.438Z,101553.20
2018-04-18T05:06:37.924Z,101555.88
2018-04-18T05:09:05.385Z,101553.20
2018-04-18T05:11:32.870Z,101559.43
2018-04-18T05:14:00.331Z,101566.51
2018-04-18T05:16:27.967Z,101568.78
2018-04-18T05:18:55.425Z,101573.38
2018-04-18T05:21:22.949Z,101568.90
2018-04-18T05:23:50.509Z,101574.17
2018-04-18T05:26:18.005Z,101575.91
2018-04-18T05:28:45.468Z,101584.42
2018-04-18T05:31:12.923Z,101584.73
2018-04-18T05:33:40.398Z,101584.38
2018-04-18T05:36:07.858Z,101594.97
2018-04-18T05:38:35.333Z,101597.65
2018-04-18T05:41:02.798Z,101597.84
2018-04-18T05:43:30.273Z,101602.91
2018-04-18T05:45:57.729Z,101608.59
2018-04-18T05:48:25.203Z,101606.91
2018-04-18T05:50:52.666Z,101612.91
2018-04-18T05:53:20.154Z,101610.20
2018-04-18T05:55:47.613Z,101615.63
2018-04-18T05:58:15.118Z,101616.34
2018-04-18T06:00:42.574Z,101611.24
2018-04-18T06:03:10.050Z,101607.63
2018-04-18T06:05:37.513Z,101614.05
2018-04-18T06:08:04.989Z,101617.40
2018-04-18T06:10:32.449Z,101623.55
2018-04-18T06:12:59.930Z,101625.20
2018-04-18T06:15:28.665Z,101623.25
2018-04-18T06:17:56.162Z,101627.72
2018-04-18T06:20:23.625Z,101635.01
2018-04-18T06:22:51.110Z,101635.12
2018-04-18T06:25:18.923Z,101643.38
2018-04-18T06:27:46.407Z,101643.64
2018-04-18T06:30:13.882Z,101638.70
2018-04-18T06:32:41.371Z,101642.90
2018-04-18T06:35:08.841Z,101637.75
2018-04-18T06:37:36.332Z,101640.03
2018-04-18T06:40:03.862Z,101639.60
2018-04-18T06:42:31.298Z,101636.45
2018-04-18T06:44:58.762Z,101645.22
2018-04-18T06:47:26.244Z,101651.13
2018-04-18T06:49:53.705Z,101650.28
2018-04-18T06:52:21.182Z,101653.41
2018-04-18T06:54:48.645Z,101650.80
2018-04-18T06:57:16.130Z,101653.33
2018-04-18T06:59:43.590Z,101654.81
2018-04-18T07:02:11.073Z,101654.34
2018-04-18T07:04:38.536Z,101660.30
2018-04-18T07:07:06.026Z,101657.25
2018-04-18T07:09:33.489Z,101657.16
2018-04-18T07:12:00.958Z,101657.48
2018-04-18T07:14:28.437Z,101660.15
2018-04-18T07:16:55.916Z,101661.86
2018-04-18T07:19:23.397Z,101664.36
2018-04-18T07:21:50.869Z,101663.41
2018-04-18T07:24:18.354Z,101663.10
2018-04-18T07:26:45.813Z,101669.20
2018-04-18T07:29:13.294Z,101665.88
2018-04-18T07:31:40.757Z,101661.61
2018-04-18T07:34:08.238Z,101663.89
2018-04-18T07:36:35.702Z,101669.67
2018-04-18T07:39:03.200Z,101674.50
2018-04-18T07:41:30.665Z,101671.31
2018-04-18T07:43:58.151Z,101672.07
2018-04-18T07:46:25.613Z,101671.80
2018-04-18T07:48:53.091Z,101675.29
2018-04-18T07:51:20.553Z,101678.97
2018-04-18T07:53:48.030Z,101681.34
2018-04-18T07:56:15.490Z,101679.53
2018-04-18T07:58:42.970Z,101680.86
2018-04-18T08:01:10.434Z,101684.44
2018-04-18T08:03:37.913Z,101683.00
2018-04-18T08:06:05.378Z,101686.09
2018-04-18T08:08:32.901Z,101680.91
2018-04-18T08:11:00.324Z,101684.01
2018-04-18T08:13:27.859Z,101687.16
2018-04-18T08:15:55.329Z,101689.50
2018-04-18T08:18:22.820Z,101686.56
2018-04-18T08:20:50.288Z,101684.72
2018-04-18T08:23:17.770Z,101693.00
2018-04-18T08:25:45.241Z,101688.44
2018-04-18T08:28:12.739Z,101687.25
2018-04-18T08:30:40.202Z,101687.75
2018-04-18T08:33:07.689Z,101687.56
2018-04-18T08:35:35.149Z,101685.30
2018-04-18T08:38:02.640Z,101683.99
2018-04-18T08:40:30.105Z,101689.15
2018-04-18T08:42:57.626Z,101696.41
2018-04-18T08:45:25.136Z,101693.12
2018-04-18T08:47:52.614Z,101692.09
2018-04-18T08:50:20.091Z,101694.64
2018-04-18T08:52:47.574Z,101699.97
2018-04-18T08:55:15.042Z,101692.22
2018-04-18T08:57:42.521Z,101697.67
2018-04-18T09:00:10.002Z,101693.38
2018-04-18T09:02:37.477Z,101690.38
2018-04-18T09:05:04.961Z,101692.41
2018-04-18T09:07:32.485Z,101691.27
2018-04-18T09:09:59.970Z,101689.33
2018-04-18T09:12:27.434Z,101694.70
2018-04-18T09:14:54.913Z,101695.12
2018-04-18T09:17:22.381Z,101689.89
2018-04-18T09:19:49.877Z,101692.38
2018-04-18T09:22:17.350Z,101697.59
2018-04-18T09:24:44.834Z,101686.52
2018-04-18T09:27:12.301Z,101689.46
2018-04-18T09:29:39.786Z,101686.17
2018-04-18T09:32:07.254Z,101684.25
2018-04-18T09:34:34.740Z,101684.78
2018-04-18T09:37:02.207Z,101682.84
2018-04-18T09:39:29.685Z,101677.87
2018-04-18T09:41:57.158Z,101685.88
2018-04-18T09:44:24.651Z,101683.95
2018-04-18T09:46:52.117Z,101686.70
2018-04-18T09:49:19.615Z,101683.27
2018-04-18T09:51:47.078Z,101683.27
2018-04-18T09:54:14.565Z,101681.88
2018-04-18T09:56:42.038Z,101674.98
2018-04-18T09:59:09.543Z,101675.89
2018-04-18T10:01:42.847Z,101669.75
2018-04-18T10:04:10.324Z,101674.34
2018-04-18T10:06:37.792Z,101668.56
2018-04-18T10:09:06.201Z,101664.87
2018-04-18T10:11:33.693Z,101664.03
2018-04-18T10:14:01.182Z,101662.41
2018-04-18T10:16:28.637Z,101663.71
2018-04-18T10:18:56.113Z,101659.88
2018-04-18T10:21:23.570Z,101657.25
2018-04-18T10:23:51.055Z,101654.34
2018-04-18T10:26:18.527Z,101653.30
2018-04-18T10:28:46.014Z,101651.77
2018-04-18T10:31:13.478Z,101645.47
2018-04-18T10:33:40.957Z,101646.77
2018-04-18T10:36:08.430Z,101649.81
2018-04-18T10:38:35.914Z,101648.25
2018-04-18T10:41:03.397Z,101645.05
2018-04-18T10:43:30.989Z,101641.83
2018-04-18T10:45:58.459Z,101647.75
2018-04-18T10:48:25.914Z,101644.36
2018-04-18T10:50:53.405Z,101642.64
2018-04-18T10:53:20.861Z,101639.03
2018-04-18T10:55:48.345Z,101634.42
2018-04-18T10:58:15.798Z,101636.02
2018-04-18T11:00:43.272Z,101633.33
2018-04-18T11:03:10.741Z,101633.34
2018-04-18T11:05:38.234Z,101635.14
2018-04-18T11:08:05.696Z,101630.41
2018-04-18T11:10:33.186Z,101637.41
2018-04-18T11:13:00.656Z,101628.33
2018-04-18T11:15:28.139Z,101630.52
2018-04-18T11:17:55.606Z,101627.55
2018-04-18T11:20:23.093Z,101633.11
2018-04-18T11:22:50.555Z,101623.95
2018-04-18T11:25:18.034Z,101623.75
2018-04-18T11:27:45.505Z,101619.30
2018-04-18T11:30:12.996Z,101622.86
2018-04-18T11:32:40.464Z,101620.80
2018-04-18T11:35:07.955Z,101624.23
2018-04-18T11:37:35.414Z,101620.88
2018-04-18T11:40:02.901Z,101615.75
2018-04-18T11:42:30.358Z,101610.55
2018-04-18T11:44:57.929Z,101598.54
2018-04-18T11:47:25.386Z,101603.07
2018-04-18T11:49:52.862Z,101605.22
2018-04-18T11:52:20.320Z,101601.89
2018-04-18T11:54:47.798Z,101600.27
2018-04-18T11:57:15.261Z,101593.98
2018-04-18T11:59:42.741Z,101598.12
2018-04-18T12:02:10.224Z,101593.55
2018-04-18T12:04:37.713Z,101597.45
2018-04-18T12:07:05.169Z,101594.36
2018-04-18T12:09:32.641Z,101590.16
2018-04-18T12:12:00.098Z,101596.16
2018-04-18T12:14:27.589Z,101594.35
2018-04-18T12:16:55.050Z,101587.59
2018-04-18T12:19:22.530Z,101588.95
2018-04-18T12:21:50.007Z,101596.33
2018-04-18T12:24:17.489Z,101586.15
2018-04-18T12:26:44.961Z,101587.64
2018-04-18T12:29:12.426Z,101580.24
2018-04-18T12:31:39.905Z,101584.34
2018-04-18T12:34:07.374Z,101578.28
2018-04-18T12:36:34.860Z,101580.95
2018-04-18T12:39:02.313Z,101575.52
2018-04-18T12:41:29.802Z,101574.05
2018-04-18T12:43:57.274Z,101567.53
2018-04-18T12:46:24.762Z,101570.24
2018-04-18T12:48:52.222Z,101566.54
2018-04-18T12:51:19.701Z,101565.95
2018-04-18T12:53:47.170Z,101565.00
2018-04-18T12:56:14.658Z,101562.97
2018-04-18T12:58:42.133Z,101563.94
2018-04-18T13:01:09.610Z,101551.14
2018-04-18T13:03:37.074Z,101555.01
2018-04-18T13:06:04.553Z,101554.54
2018-04-18T13:08:32.019Z,101548.28
2018-04-18T13:10:59.501Z,101539.77
2018-04-18T13:13:26.955Z,101535.67
2018-04-18T13:15:54.429Z,101539.50
2018-04-18T13:18:21.937Z,101522.94
2018-04-18T13:20:49.381Z,101527.70
2018-04-18T13:23:16.833Z,101529.33
2018-04-18T13:25:45.157Z,101529.57
2018-04-18T13:28:12.619Z,101526.03
2018-04-18T13:30:40.103Z,101524.09
2018-04-18T13:33:07.602Z,101514.36
2018-04-18T13:35:35.070Z,101520.39
2018-04-18T13:38:02.539Z,101518.25
2018-04-18T13:40:30.017Z,101521.44
2018-04-18T13:42:57.478Z,101517.84
2018-04-18T13:45:24.953Z,101520.55
2018-04-18T13:47:52.417Z,101509.25
2018-04-18T13:50:19.893Z,101508.69
2018-04-18T13:52:47.374Z,101504.55
2018-04-18T13:55:14.858Z,101492.02
2018-04-18T13:57:42.317Z,101492.51
2018-04-18T14:00:09.802Z,101501.31
2018-04-18T14:02:37.258Z,101493.23
2018-04-18T14:05:04.747Z,101491.70
2018-04-18T14:07:32.206Z,101496.06
2018-04-18T14:09:59.682Z,101488.16
2018-04-18T14:12:27.150Z,101488.52
2018-04-18T14:14:54.615Z,101480.44
2018-04-18T14:17:22.104Z,101482.41
2018-04-18T14:19:49.591Z,101483.04
2018-04-18T14:22:17.069Z,101487.89
2018-04-18T14:24:44.538Z,101472.86
2018-04-18T14:27:12.017Z,101473.97
2018-04-18T14:29:39.482Z,101471.27
2018-04-18T14:32:06.991Z,101470.47
2018-04-18T14:34:34.449Z,101461.48
2018-04-18T14:37:02.063Z,101463.84
2018-04-18T14:39:29.517Z,101462.73
2018-04-18T14:41:57.017Z,101455.35
2018-04-18T14:44:24.473Z,101457.59
2018-04-18T14:46:51.958Z,101451.05
2018-04-18T14:49:19.442Z,101453.94
2018-04-18T14:51:46.929Z,101454.02
2018-04-18T14:54:14.397Z,101440.79
2018-04-18T14:56:41.886Z,101444.13
2018-04-18T14:59:09.355Z,101443.78
2018-04-18T15:01:36.837Z,101438.97
2018-04-18T15:04:04.301Z,101443.09
2018-04-18T15:06:31.789Z,101436.10
2018-04-18T15:08:59.261Z,101431.28
2018-04-18T15:11:26.763Z,101438.27
2018-04-18T15:13:54.225Z,101431.69
2018-04-18T15:16:21.737Z,101424.22
2018-04-18T15:18:49.191Z,101420.16
2018-04-18T15:21:16.905Z,101417.65
2018-04-18T15:23:44.376Z,101413.84
2018-04-18T15:26:11.857Z,101418.31
2018-04-18T15:28:39.325Z,101417.27
2018-04-18T15:31:06.824Z,101416.77
2018-04-18T15:33:34.300Z,101419.81
2018-04-18T15:36:01.777Z,101411.02
2018-04-18T15:38:29.243Z,101405.39
2018-04-18T15:40:56.730Z,101403.78
2018-04-18T15:43:24.195Z,101404.58
2018-04-18T15:45:51.779Z,101402.73
2018-04-18T15:48:19.252Z,101404.02
2018-04-18T15:50:46.746Z,101401.23
2018-04-18T15:53:14.228Z,101396.75
2018-04-18T15:55:41.725Z,101391.86
2018-04-18T15:58:09.215Z,101386.37
2018-04-18T16:00:36.706Z,101388.20
2018-04-18T16:03:04.190Z,101379.91
2018-04-18T16:05:31.658Z,101386.09
2018-04-18T16:07:59.158Z,101384.19
2018-04-18T16:10:26.644Z,101383.75
2018-04-18T16:12:54.129Z,101381.46
2018-04-18T16:15:21.610Z,101379.95
2018-04-18T16:17:49.151Z,101377.69
2018-04-18T16:20:16.630Z,101383.31
2018-04-18T16:22:44.126Z,101379.87
2018-04-18T16:25:11.609Z,101372.41
2018-04-18T16:27:39.117Z,101367.28
2018-04-18T16:30:18.425Z,101373.47
2018-04-18T16:32:45.931Z,101364.08
2018-04-18T16:35:13.413Z,101376.78
2018-04-18T16:37:40.905Z,101369.32
2018-04-18T16:40:08.635Z,101370.75
2018-04-18T16:42:36.122Z,101365.81
2018-04-18T16:45:03.593Z,101363.36
2018-04-18T16:47:31.093Z,101363.84
2018-04-18T16:49:58.585Z,101363.02
2018-04-18T16:52:26.090Z,101363.36
2018-04-18T16:54:53.552Z,101364.28
2018-04-18T16:57:21.034Z,101355.72
2018-04-18T16:59:48.503Z,101354.70
2018-04-18T17:02:15.986Z,101352.30
2018-04-18T17:04:43.470Z,101350.88
2018-04-18T17:07:10.963Z,101353.07
2018-04-18T17:09:38.426Z,101355.09
2018-04-18T17:12:05.919Z,101356.14
2018-04-18T17:14:33.398Z,101355.02
2018-04-18T17:17:01.142Z,101355.09
2018-04-18T17:19:28.622Z,101349.88
2018-04-18T17:21:56.198Z,101350.73
2018-04-18T17:24:23.666Z,101350.49
2018-04-18T17:26:51.166Z,101348.98
2018-04-18T17:29:18.646Z,101343.55
2018-04-18T17:31:46.138Z,101342.13
2018-04-18T17:34:13.891Z,101343.45
2018-04-18T17:36:41.407Z,101342.09
2018-04-18T17:39:09.107Z,101343.70
2018-04-18T17:41:36.591Z,101336.47
2018-04-18T17:44:04.534Z,101333.26
2018-04-18T17:46:32.029Z,101337.88
2018-04-18T17:48:59.494Z,101332.16
2018-04-18T17:51:26.985Z,101336.00
2018-04-18T17:53:54.458Z,101336.33
2018-04-18T17:56:21.954Z,101335.25
2018-04-18T17:58:49.421Z,101334.25
2018-04-18T18:01:16.889Z,101336.66
2018-04-18T18:03:44.376Z,101337.28
2018-04-18T18:06:11.858Z,101338.03
2018-04-18T18:08:39.347Z,101342.25
2018-04-18T18:11:06.835Z,101330.95
2018-04-18T18:13:34.352Z,101339.34
2018-04-18T18:16:02.296Z,101344.42
2018-04-18T18:18:29.786Z,101351.19
2018-04-18T18:20:57.253Z,101343.15
2018-04-18T18:23:24.754Z,101342.37
2018-04-18T18:25:52.229Z,101348.64
2018-04-18T18:28:19.976Z,101347.16
2018-04-18T18:30:47.453Z,101349.66
2018-04-18T18:33:14.950Z,101341.92
2018-04-18T18:35:42.459Z,101347.52
2018-04-18T18:38:09.964Z,101349.18
2018-04-18T18:40:37.434Z,101348.71
2018-04-18T18:43:04.965Z,101351.48
2018-04-18T18:45:32.426Z,101357.14
2018-04-18T18:47:59.918Z,101354.36
2018-04-18T18:50:27.381Z,101354.52
2018-04-18T18:52:55.256Z,101358.59
2018-04-18T18:55:22.735Z,101355.63
2018-04-18T18:57:50.238Z,101358.06
2018-04-18T19:00:17.714Z,101360.73
2018-04-18T19:02:45.210Z,101357.38
2018-04-18T19:05:12.689Z,101359.67
2018-04-18T19:07:40.511Z,101357.81
2018-04-18T19:10:07.989Z,101362.91
2018-04-18T19:12:35.483Z,101364.30
2018-04-18T19:15:02.957Z,101365.86
2018-04-18T19:17:30.487Z,101364.91
2018-04-18T19:19:57.954Z,101368.67
2018-04-18T19:22:25.447Z,101374.72
2018-04-18T19:24:52.922Z,101372.24
2018-04-18T19:27:20.406Z,101370.05
2018-04-18T19:29:47.898Z,101374.47
2018-04-18T19:32:15.405Z,101371.05
2018-04-18T19:34:42.884Z,101369.27
2018-04-18T19:37:10.815Z,101372.44
2018-04-18T19:39:38.273Z,101372.19
2018-04-18T19:42:05.773Z,101366.41
2018-04-18T19:44:33.266Z,101370.16
2018-04-18T19:47:00.782Z,101374.95
2018-04-18T19:49:28.241Z,101370.12
2018-04-18T19:51:56.373Z,101369.41
2018-04-18T19:54:24.089Z,101375.59
2018-04-18T19:56:51.553Z,101372.31
2018-04-18T19:59:19.063Z,101375.62
2018-04-18T20:01:46.534Z,101376.08
2018-04-18T20:04:14.022Z,101378.00
2018-04-18T20:06:41.502Z,101378.73
2018-04-18T20:09:08.989Z,101371.56
2018-04-18T20:11:36.712Z,101371.84
2018-04-18T20:14:04.226Z,101375.58
2018-04-18T20:16:32.595Z,101378.74
2018-04-18T20:19:00.073Z,101375.02
2018-04-18T20:21:27.574Z,101379.00
2018-04-18T20:23:55.058Z,101369.66
2018-04-18T20:26:22.592Z,101369.23
2018-04-18T20:28:50.085Z,101375.84
2018-04-18T20:31:17.664Z,101372.53
2018-04-18T20:33:45.166Z,101373.23
2018-04-18T20:36:12.637Z,101383.80
2018-04-18T20:38:40.170Z,101381.34
2018-04-18T20:41:07.641Z,101389.73
2018-04-18T20:43:35.138Z,101385.98
2018-04-18T20:46:02.622Z,101378.27
2018-04-18T20:48:30.123Z,101380.20
2018-04-18T20:50:57.590Z,101378.41
2018-04-18T20:53:25.085Z,101382.09
2018-04-18T20:55:52.559Z,101379.16
2018-04-18T20:58:20.061Z,101384.59
2018-04-18T21:00:47.562Z,101384.04
2018-04-18T21:03:15.422Z,101382.29
2018-04-18T21:05:43.117Z,101381.78
2018-04-18T21:08:10.626Z,101380.83
2018-04-18T21:10:38.101Z,101383.64
2018-04-18T21:13:05.590Z,101393.41
2018-04-18T21:15:33.057Z,101393.59
2018-04-18T21:18:00.557Z,101391.47
2018-04-18T21:20:28.015Z,101394.59
2018-04-18T21:22:55.509Z,101397.80
2018-04-18T21:25:23.009Z,101394.26
2018-04-18T21:27:50.507Z,101396.77
2018-04-18T21:30:17.972Z,101398.09
2018-04-18T21:32:45.475Z,101398.28
2018-04-18T21:35:12.939Z,101397.95
2018-04-18T21:37:40.417Z,101402.28
2018-04-18T21:40:07.881Z,101404.52
2018-04-18T21:42:35.353Z,101403.88
2018-04-18T21:45:02.846Z,101395.03
2018-04-18T21:47:30.777Z,101391.08
2018-04-18T21:49:58.273Z,101395.72
2018-04-18T21:52:25.750Z,101392.41
2018-04-18T21:57:19.993Z,101395.94
2018-04-18T21:59:47.710Z,101389.94
2018-04-18T22:02:15.170Z,101399.25
2018-04-18T22:04:42.780Z,101399.05
2018-04-18T22:07:10.263Z,101396.28
2018-04-18T22:09:37.755Z,101391.99
2018-04-18T22:12:05.214Z,101388.15
2018-04-18T22:14:32.693Z,101386.17
2018-04-18T22:17:00.179Z,101385.74
2018-04-18T22:19:27.676Z,101386.37
2018-04-18T22:21:55.154Z,101383.39
2018-04-18T22:24:22.640Z,101381.66
2018-04-18T22:26:50.097Z,101384.76
2018-04-18T22:29:17.579Z,101382.53
2018-04-18T22:31:45.038Z,101379.34
2018-04-18T22:34:12.517Z,101379.30
2018-04-18T22:36:39.978Z,101377.36
2018-04-18T22:39:07.453Z,101375.46
2018-04-18T22:41:34.937Z,101377.20
2018-04-18T22:44:02.420Z,101376.33
2018-04-18T22:46:29.878Z,101374.64
2018-04-18T22:48:57.364Z,101378.36
2018-04-18T22:51:25.053Z,101372.06
2018-04-18T22:53:52.531Z,101375.34
2018-04-18T22:56:20.021Z,101374.92
2018-04-18T22:58:47.503Z,101382.59
2018-04-18T23:01:14.990Z,101380.88
2018-04-18T23:03:42.477Z,101382.30
2018-04-18T23:06:09.951Z,101384.77
2018-04-18T23:08:37.442Z,101380.47
2018-04-18T23:11:04.904Z,101389.87
2018-04-18T23:13:32.386Z,101386.66
2018-04-18T23:15:59.837Z,101383.66
2018-04-18T23:18:27.317Z,101390.67
2018-04-18T23:20:54.790Z,101387.08
2018-04-18T23:23:22.281Z,101387.19
2018-04-18T23:25:49.746Z,101379.61
2018-04-18T23:28:17.242Z,101379.80
2018-04-18T23:30:44.705Z,101383.92
2018-04-18T23:33:12.175Z,101381.62
2018-04-18T23:35:39.657Z,101378.42
2018-04-18T23:38:07.123Z,101383.63
2018-04-18T23:40:34.610Z,101378.12
2018-04-18T23:43:02.072Z,101379.48
2018-04-18T23:45:29.545Z,101378.23
2018-04-18T23:47:56.996Z,101378.34
2018-04-18T23:50:24.489Z,101371.61
2018-04-18T23:52:51.945Z,101368.30
2018-04-18T23:55:19.424Z,101373.71
2018-04-18T23:57:46.877Z,101375.70
